Time;durP1;ratioP1;P1;durP2;ratioP2;P2;SDS_P1;SDS_P2;PMS_P1;PMS_P2;Temp;Humidity;BMP_temperature;BMP_pressure;BME280_temperature;BME280_humidity;BME280_pressure;Samples;Min_cycle;Max_cycle;Signal;HPM_P1;HPM_P2
2023/05/19 00:00:27;;;;;;;4.55;3.17;;;;;;;16.79;68.70;99840.81;7337333;19;20022;-63
2023/05/19 00:02:52;;;;;;;4.43;3.72;;;;;;;16.76;68.88;99831.16;7344987;19;20031;-61
2023/05/19 00:05:19;;;;;;;6.60;4.30;;;;;;;16.77;68.98;99837.41;7347615;19;20022;-63
2023/05/19 00:07:45;;;;;;;4.50;3.75;;;;;;;16.76;69.19;99836.56;7346071;19;20014;-61
2023/05/19 00:10:13;;;;;;;7.35;3.97;;;;;;;16.72;69.14;99840.50;7345840;19;20018;-62
2023/05/19 00:12:38;;;;;;;5.05;3.97;;;;;;;16.72;69.09;99845.91;7346035;19;20018;-61
2023/05/19 00:15:04;;;;;;;5.90;3.65;;;;;;;16.71;69.42;99844.19;7346236;19;20011;-62
2023/05/19 00:17:33;;;;;;;5.00;3.80;;;;;;;16.69;69.21;99843.53;7345247;19;20018;-61
2023/05/19 00:20:00;;;;;;;4.25;3.67;;;;;;;16.68;69.04;99848.06;7345577;19;20014;-62
2023/05/19 00:22:26;;;;;;;6.85;3.80;;;;;;;16.64;69.14;99859.22;7345070;19;20022;-62
2023/05/19 00:24:52;;;;;;;4.47;3.75;;;;;;;16.60;69.50;99861.31;7341881;19;20021;-61
2023/05/19 00:27:22;;;;;;;5.00;3.13;;;;;;;16.58;69.72;99871.41;7342634;19;20015;-62
2023/05/19 00:29:47;;;;;;;5.55;3.92;;;;;;;16.58;69.35;99870.56;7344503;19;20030;-61
2023/05/19 00:32:12;;;;;;;5.30;3.72;;;;;;;16.54;69.81;99874.50;7343634;19;20014;-63
2023/05/19 00:34:36;;;;;;;5.32;4.20;;;;;;;16.52;69.48;99877.34;7344444;19;20039;-61
2023/05/19 00:37:01;;;;;;;4.47;3.97;;;;;;;16.51;69.68;99882.84;7343602;19;20022;-62
2023/05/19 00:39:27;;;;;;;4.18;3.25;;;;;;;16.47;69.82;99876.06;7343413;19;20010;-61
2023/05/19 00:41:52;;;;;;;4.28;3.30;;;;;;;16.42;69.50;99886.41;7341120;19;20014;-63
2023/05/19 00:44:19;;;;;;;3.80;3.22;;;;;;;16.35;69.39;99875.38;7343982;19;20015;-62
2023/05/19 00:46:44;;;;;;;4.55;3.03;;;;;;;16.29;69.51;99882.13;7342581;19;20624;-62
2023/05/19 00:49:13;;;;;;;3.20;2.95;;;;;;;16.28;69.61;99885.81;7344856;19;20337;-61
2023/05/19 00:51:40;;;;;;;3.30;2.67;;;;;;;16.23;69.29;99882.72;7344395;19;20033;-61
2023/05/19 00:54:05;;;;;;;3.47;2.60;;;;;;;16.20;69.45;99885.69;7341385;19;20082;-63
2023/05/19 00:56:30;;;;;;;3.67;2.72;;;;;;;16.17;69.60;99880.56;7344192;19;20018;-63
2023/05/19 00:58:57;;;;;;;4.60;2.45;;;;;;;16.14;69.52;99891.59;7341424;19;20014;-62
2023/05/19 01:01:25;;;;;;;5.40;2.67;;;;;;;16.14;69.70;99885.41;7341332;19;20469;-62
2023/05/19 01:03:50;;;;;;;7.38;3.05;;;;;;;16.11;69.79;99883.81;7341775;19;20465;-62
2023/05/19 01:08:50;;;;;;;2.83;2.58;;;;;;;16.08;69.92;99891.31;7340645;19;20015;-64
2023/05/19 01:11:22;;;;;;;15.65;3.45;;;;;;;16.10;69.73;99890.19;7340092;19;20014;-63
2023/05/19 01:13:50;;;;;;;2.97;2.38;;;;;;;16.03;69.74;99886.34;7341355;19;20078;-62
2023/05/19 01:16:30;;;;;;;2.75;2.33;;;;;;;16.13;69.78;99900.69;7341192;19;20011;-61
2023/05/19 01:19:24;;;;;;;2.67;2.47;;;;;;;16.04;69.72;99898.78;7339273;19;20041;-62
2023/05/19 01:22:11;;;;;;;3.85;2.38;;;;;;;16.04;69.89;99900.63;7338261;19;20007;-62
2023/05/19 01:25:22;;;;;;;2.60;2.40;;;;;;;16.07;69.66;99903.91;7338804;19;20447;-59
2023/05/19 01:27:59;;;;;;;4.88;2.67;;;;;;;15.96;69.56;99899.50;7336675;19;20406;-63
2023/05/19 01:30:36;;;;;;;2.40;2.00;;;;;;;15.88;69.93;99898.50;7339656;19;20045;-63
2023/05/19 01:33:06;;;;;;;4.32;2.25;;;;;;;15.78;69.95;99903.00;7337376;19;20024;-63
2023/05/19 01:35:33;;;;;;;2.35;2.08;;;;;;;15.66;70.15;99907.63;7339855;19;20253;-62
2023/05/19 01:38:00;;;;;;;3.05;2.03;;;;;;;15.56;70.31;99904.88;7338457;19;20433;-63
2023/05/19 01:40:27;;;;;;;5.78;2.35;;;;;;;15.45;70.61;99904.94;7338013;19;20018;-63
2023/05/19 01:42:56;;;;;;;2.28;2.05;;;;;;;15.39;71.01;99912.66;7338648;19;20078;-63
2023/05/19 01:45:21;;;;;;;2.20;2.00;;;;;;;15.29;71.56;99915.31;7339339;19;20398;-62
2023/05/19 01:47:48;;;;;;;2.50;2.13;;;;;;;15.21;71.71;99921.34;7338653;19;20031;-63
2023/05/19 01:50:15;;;;;;;1.50;1.40;;;;;;;15.16;71.90;99930.78;7338744;19;20142;-62
2023/05/19 01:52:41;;;;;;;1.58;1.48;;;;;;;15.07;71.79;99913.63;7339742;19;20504;-62
2023/05/19 01:55:06;;;;;;;1.73;1.63;;;;;;;15.02;71.85;99923.03;7339054;19;20452;-63
2023/05/19 01:58:06;;;;;;;1.63;1.52;;;;;;;15.10;71.95;99931.31;7339540;19;20019;-62
2023/05/19 02:00:40;;;;;;;2.08;1.88;;;;;;;14.90;71.77;99928.47;7334593;19;20015;-62
2023/05/19 02:03:16;;;;;;;6.95;2.55;;;;;;;14.98;71.74;99935.03;7338807;19;20369;-64
2023/05/19 02:05:50;;;;;;;2.45;2.25;;;;;;;14.93;71.03;99934.56;7335422;19;20030;-68
2023/05/19 02:08:54;;;;;;;5.22;3.17;;;;;;;14.89;70.64;99928.63;7340179;19;20147;-63
2023/05/19 02:11:31;;;;;;;5.30;3.30;;;;;;;14.77;70.35;99935.88;7342129;19;20505;-63
2023/05/19 02:14:19;;;;;;;6.13;3.92;;;;;;;14.68;70.16;99938.47;7346147;19;20010;-71
2023/05/19 02:16:48;;;;;;;5.55;3.90;;;;;;;14.54;69.31;99942.31;7347282;19;20442;-64
2023/05/19 02:19:29;;;;;;;4.60;3.65;;;;;;;14.57;69.51;99944.72;7342144;19;20013;-64
2023/05/19 02:21:57;;;;;;;6.38;4.82;;;;;;;14.39;68.56;99946.22;7342387;19;20488;-64
2023/05/19 02:24:23;;;;;;;4.65;3.65;;;;;;;14.33;68.67;99957.47;7341384;19;20521;-68
2023/05/19 02:26:51;;;;;;;5.07;4.30;;;;;;;14.26;68.15;99949.06;7346009;19;20011;-63
2023/05/19 02:29:20;;;;;;;6.20;3.92;;;;;;;14.24;67.95;99953.69;7344841;19;20046;-68
2023/05/19 02:31:49;;;;;;;5.65;3.90;;;;;;;14.22;67.57;99952.13;7340665;19;20497;-67
2023/05/19 02:34:14;;;;;;;5.05;4.28;;;;;;;14.17;66.94;99968.59;7340890;19;20018;-68
2023/05/19 02:36:44;;;;;;;4.85;3.80;;;;;;;14.10;66.33;99960.22;7342973;19;20020;-67
2023/05/19 02:39:12;;;;;;;7.03;4.35;;;;;;;14.06;66.19;99961.41;7343635;19;20461;-68
2023/05/19 02:41:39;;;;;;;5.32;3.90;;;;;;;14.06;66.03;99972.13;7341948;19;20015;-73
2023/05/19 02:44:04;;;;;;;3.80;3.33;;;;;;;14.00;65.80;99959.22;7344215;19;20330;-71
2023/05/19 02:46:29;;;;;;;9.10;6.80;;;;;;;14.02;65.85;99961.78;7342679;19;20337;-68
2023/05/19 02:48:54;;;;;;;7.03;4.45;;;;;;;14.00;65.78;99964.56;7348405;19;20406;-62
2023/05/19 02:51:18;;;;;;;5.65;4.00;;;;;;;13.98;65.31;99963.88;7345533;19;20018;-64
2023/05/19 02:53:45;;;;;;;5.50;3.63;;;;;;;13.99;64.41;99964.72;7344931;19;20098;-63
2023/05/19 02:56:10;;;;;;;5.18;4.00;;;;;;;13.99;64.14;99970.94;7346248;19;20015;-64
2023/05/19 02:58:34;;;;;;;4.65;3.63;;;;;;;14.00;64.05;99967.25;7345114;19;20018;-66
2023/05/19 03:01:00;;;;;;;5.40;3.55;;;;;;;13.97;63.32;99970.22;7343591;19;20037;-65
2023/05/19 03:03:25;;;;;;;9.73;3.40;;;;;;;13.96;63.39;99965.81;7345525;19;20022;-64
2023/05/19 03:05:52;;;;;;;8.30;3.70;;;;;;;13.99;62.85;99970.94;7346993;19;20018;-64
2023/05/19 03:08:18;;;;;;;11.05;3.90;;;;;;;14.01;62.95;99978.84;7346730;19;20033;-64
2023/05/19 03:10:44;;;;;;;4.90;3.53;;;;;;;14.03;62.79;99985.78;7342650;19;20026;-64
2023/05/19 03:13:10;;;;;;;4.65;4.13;;;;;;;14.01;62.82;99979.69;7348047;19;20031;-63
2023/05/19 03:15:35;;;;;;;5.18;4.05;;;;;;;13.99;62.95;99981.66;7342669;19;20086;-64
2023/05/19 03:18:00;;;;;;;6.00;4.18;;;;;;;13.95;63.27;99985.56;7347933;19;20023;-64
2023/05/19 03:20:25;;;;;;;9.63;3.95;;;;;;;13.92;63.48;99996.50;7346439;19;20014;-63
2023/05/19 03:22:50;;;;;;;5.78;4.03;;;;;;;13.89;63.95;99991.38;7344520;19;20033;-62
2023/05/19 03:25:15;;;;;;;6.57;4.13;;;;;;;13.85;64.23;99999.81;7346713;19;20025;-63
2023/05/19 03:27:40;;;;;;;5.90;3.75;;;;;;;13.82;64.62;99998.22;7344762;19;20022;-63
2023/05/19 03:30:07;;;;;;;4.32;3.65;;;;;;;13.82;64.92;100001.75;7344740;19;20078;-61
2023/05/19 03:32:46;;;;;;;6.75;4.38;;;;;;;13.77;64.52;99997.72;7342537;19;20026;-64
2023/05/19 03:35:19;;;;;;;7.28;4.10;;;;;;;13.77;64.74;100003.94;7344084;19;20010;-64
2023/05/19 03:40:17;;;;;;;4.53;3.50;;;;;;;13.61;64.39;100002.59;7343113;19;20026;-64
2023/05/19 03:42:45;;;;;;;4.88;3.88;;;;;;;13.57;64.48;100009.16;7342103;19;20023;-64
2023/05/19 03:45:09;;;;;;;5.15;3.85;;;;;;;13.51;64.54;100010.50;7341935;19;20026;-65
2023/05/19 03:47:34;;;;;;;5.88;3.90;;;;;;;13.43;64.88;100011.06;7340972;19;20019;-64
2023/05/19 03:50:22;;;;;;;6.97;4.20;;;;;;;13.33;65.04;100023.47;7339037;19;20018;-64
2023/05/19 03:52:57;;;;;;;6.25;3.95;;;;;;;13.30;65.74;100023.72;7339336;19;20010;-64
2023/05/19 03:55:28;;;;;;;5.75;4.28;;;;;;;13.29;66.29;100029.19;7339028;19;20011;-63
2023/05/19 03:57:57;;;;;;;5.97;4.10;;;;;;;13.30;66.69;100026.41;7339504;19;20806;-63
2023/05/19 04:00:22;;;;;;;11.88;4.55;;;;;;;13.38;66.74;100029.34;7338348;19;20017;-64
2023/05/19 04:02:51;;;;;;;7.10;4.72;;;;;;;13.49;67.10;100041.91;7338974;19;20342;-64
2023/05/19 04:05:17;;;;;;;6.72;4.32;;;;;;;13.50;66.07;100032.03;7339761;19;20014;-64
2023/05/19 04:07:43;;;;;;;7.78;4.30;;;;;;;13.52;66.32;100036.31;7338982;19;20481;-65
2023/05/19 04:10:09;;;;;;;6.15;3.92;;;;;;;13.52;66.34;100033.63;7339467;19;20129;-64
2023/05/19 04:12:36;;;;;;;5.38;3.83;;;;;;;13.62;66.36;100033.78;7339285;19;20010;-65
2023/05/19 04:15:04;;;;;;;5.43;4.05;;;;;;;13.62;66.32;100026.59;7343490;19;20361;-65
2023/05/19 04:17:31;;;;;;;9.40;4.78;;;;;;;13.66;66.46;100032.53;7339900;19;20083;-64
2023/05/19 04:19:56;;;;;;;7.95;4.65;;;;;;;13.64;66.60;100035.38;7339172;19;20022;-64
2023/05/19 04:22:21;;;;;;;7.35;4.70;;;;;;;13.62;66.18;100029.28;7336975;19;20015;-64
2023/05/19 04:24:51;;;;;;;6.38;4.70;;;;;;;13.63;66.61;100022.94;7338875;19;20041;-64
2023/05/19 04:27:17;;;;;;;6.75;4.45;;;;;;;13.64;66.79;100039.88;7339149;19;20096;-65
2023/05/19 04:29:42;;;;;;;8.52;4.90;;;;;;;13.65;67.04;100030.88;7339723;19;20345;-64
2023/05/19 04:32:07;;;;;;;5.75;4.25;;;;;;;13.66;67.31;100035.22;7340592;19;20026;-63
2023/05/19 04:34:34;;;;;;;6.07;4.88;;;;;;;13.67;67.36;100035.09;7340034;19;20086;-65
2023/05/19 04:37:03;;;;;;;5.75;4.32;;;;;;;13.73;67.25;100044.50;7339525;19;20018;-65
2023/05/19 04:39:28;;;;;;;6.75;4.68;;;;;;;13.77;67.28;100036.09;7339781;19;20352;-63
2023/05/19 04:41:56;;;;;;;10.18;6.13;;;;;;;13.78;66.93;100044.97;7338278;19;20085;-64
2023/05/19 04:44:21;;;;;;;7.35;5.35;;;;;;;13.80;66.92;100041.22;7339529;19;20364;-64
2023/05/19 04:46:53;;;;;;;10.52;4.95;;;;;;;13.87;66.94;100041.59;7339339;19;20024;-64
2023/05/19 04:49:23;;;;;;;9.60;5.22;;;;;;;13.87;66.86;100041.59;7340017;19;20078;-65
2023/05/19 04:51:48;;;;;;;9.15;5.97;;;;;;;13.89;66.76;100039.63;7344044;19;20465;-63
2023/05/19 04:54:19;;;;;;;9.38;5.57;;;;;;;13.92;66.76;100031.34;7339567;19;20473;-64
2023/05/19 04:56:54;;;;;;;8.55;5.43;;;;;;;14.00;66.59;100045.00;7339458;19;20029;-64
2023/05/19 04:59:20;;;;;;;10.13;5.50;;;;;;;13.91;66.59;100044.88;7339089;19;20014;-64
2023/05/19 05:01:50;;;;;;;8.07;5.55;;;;;;;13.89;66.82;100041.47;7337419;19;20020;-64
2023/05/19 05:04:16;;;;;;;7.32;5.43;;;;;;;13.88;66.85;100051.34;7339101;19;20007;-65
2023/05/19 05:06:47;;;;;;;10.13;8.65;;;;;;;13.94;67.02;100050.84;7340751;19;20036;-63
2023/05/19 05:09:20;;;;;;;8.07;5.53;;;;;;;13.92;66.90;100052.81;7342192;19;20479;-63
2023/05/19 05:11:54;;;;;;;11.52;5.50;;;;;;;13.93;66.60;100059.00;7342467;19;20027;-62
2023/05/19 05:14:19;;;;;;;8.20;5.00;;;;;;;13.93;66.60;100051.81;7346918;19;20014;-65
2023/05/19 05:16:48;;;;;;;9.70;5.20;;;;;;;13.97;66.86;100063.16;7343466;19;20122;-63
2023/05/19 05:19:21;;;;;;;7.35;5.38;;;;;;;13.95;66.21;100062.44;7342018;19;20014;-64
2023/05/19 05:21:46;;;;;;;7.05;5.25;;;;;;;13.94;66.57;100064.25;7343636;19;20010;-63
2023/05/19 05:24:16;;;;;;;6.97;5.35;;;;;;;13.89;66.59;100061.06;7339738;19;20018;-62
2023/05/19 05:26:47;;;;;;;7.65;5.63;;;;;;;13.89;66.45;100063.75;7338976;19;20010;-63
2023/05/19 05:29:15;;;;;;;8.68;5.43;;;;;;;13.78;66.56;100058.38;7338275;19;20011;-63
2023/05/19 05:31:46;;;;;;;7.75;5.57;;;;;;;13.81;67.02;100066.19;7339818;19;20017;-63
2023/05/19 05:34:11;;;;;;;9.50;6.85;;;;;;;13.72;67.43;100062.41;7338676;19;20082;-65
2023/05/19 05:36:36;;;;;;;9.65;6.43;;;;;;;13.73;67.45;100065.94;7338363;19;20051;-63
2023/05/19 05:39:01;;;;;;;7.28;5.53;;;;;;;13.73;67.64;100071.31;7338292;19;20063;-64
2023/05/19 05:41:33;;;;;;;8.55;5.72;;;;;;;13.74;67.72;100073.88;7336565;19;20011;-64
2023/05/19 05:44:00;;;;;;;11.02;6.03;;;;;;;13.74;67.84;100073.00;7343024;19;20026;-65
2023/05/19 05:46:29;;;;;;;8.48;5.45;;;;;;;13.75;67.41;100074.72;7345306;19;20101;-65
2023/05/19 05:48:55;;;;;;;9.07;6.40;;;;;;;13.74;67.52;100078.38;7345664;19;20069;-64
2023/05/19 05:51:21;;;;;;;8.15;6.18;;;;;;;13.75;67.63;100080.06;7345202;19;20018;-64
2023/05/19 05:53:51;;;;;;;16.88;7.80;;;;;;;13.78;67.36;100079.81;7347151;19;20019;-64
2023/05/19 05:56:16;;;;;;;11.50;6.70;;;;;;;13.75;67.07;100080.06;7344707;19;20022;-64
2023/05/19 05:58:50;;;;;;;8.18;6.07;;;;;;;13.70;67.19;100091.13;7344788;19;20070;-63
2023/05/19 06:01:20;;;;;;;7.82;6.07;;;;;;;13.69;67.53;100092.09;7344133;19;20023;-63
2023/05/19 06:03:47;;;;;;;10.05;7.35;;;;;;;13.73;67.70;100093.59;7344768;19;20044;-64
2023/05/19 06:06:17;;;;;;;10.45;7.25;;;;;;;13.72;67.91;100091.88;7344700;19;20031;-64
2023/05/19 06:08:41;;;;;;;11.57;7.40;;;;;;;13.78;67.97;100087.84;7344778;19;20020;-65
2023/05/19 06:11:10;;;;;;;13.30;8.35;;;;;;;13.81;68.02;100084.94;7344134;19;20078;-64
2023/05/19 06:13:40;;;;;;;11.30;7.80;;;;;;;13.86;67.95;100082.78;7346816;19;20033;-64
2023/05/19 06:16:07;;;;;;;11.27;8.00;;;;;;;13.89;67.77;100082.50;7343668;19;20018;-63
2023/05/19 06:18:41;;;;;;;12.80;8.00;;;;;;;13.93;68.00;100086.66;7344303;19;20030;-63
2023/05/19 06:21:09;;;;;;;23.58;9.10;;;;;;;13.94;67.96;100082.16;7343394;19;20018;-63
2023/05/19 06:23:35;;;;;;;15.85;8.95;;;;;;;14.01;68.03;100081.56;7344516;19;20117;-63
2023/05/19 06:25:59;;;;;;;16.92;9.23;;;;;;;14.10;67.80;100085.38;7343796;19;20853;-64
2023/05/19 06:28:25;;;;;;;22.80;7.95;;;;;;;14.17;67.43;100087.44;7346893;19;20014;-64
2023/05/19 06:30:51;;;;;;;29.95;9.80;;;;;;;14.24;67.35;100082.41;7343614;19;20030;-64
2023/05/19 06:33:22;;;;;;;18.90;9.00;;;;;;;14.35;67.19;100085.09;7345230;19;20017;-63
2023/05/19 06:35:48;;;;;;;13.18;8.60;;;;;;;14.46;66.94;100085.13;7344162;19;20089;-65
2023/05/19 06:38:16;;;;;;;11.80;8.18;;;;;;;14.61;66.48;100074.13;7344234;19;20032;-64
2023/05/19 06:40:42;;;;;;;17.52;10.07;;;;;;;14.76;66.15;100084.47;7344535;19;20465;-64
2023/05/19 06:43:10;;;;;;;17.88;8.35;;;;;;;14.84;65.62;100089.22;7344719;19;20018;-64
2023/05/19 06:45:51;;;;;;;15.48;9.23;;;;;;;14.94;64.95;100092.84;7343765;19;20019;-63
2023/05/19 06:48:16;;;;;;;32.47;11.25;;;;;;;15.05;65.11;100087.44;7343427;19;20015;-64
2023/05/19 06:50:41;;;;;;;18.90;10.40;;;;;;;15.25;65.04;100091.13;7344900;19;20025;-65
2023/05/19 06:53:07;;;;;;;19.85;10.18;;;;;;;15.49;64.15;100082.84;7342986;19;20015;-64
2023/05/19 06:55:33;;;;;;;14.00;8.90;;;;;;;15.74;63.00;100085.19;7342525;19;20045;-62
2023/05/19 06:57:58;;;;;;;36.90;10.57;;;;;;;15.90;62.43;100087.41;7342679;19;20074;-63
2023/05/19 07:00:26;;;;;;;13.52;9.90;;;;;;;16.00;61.72;100091.00;7344057;19;20047;-64
2023/05/19 07:02:54;;;;;;;17.88;9.50;;;;;;;16.06;61.59;100092.31;7340425;19;20022;-63
2023/05/19 07:05:19;;;;;;;15.13;9.70;;;;;;;16.15;61.36;100086.97;7343187;19;20015;-63
2023/05/19 07:07:48;;;;;;;17.08;10.00;;;;;;;16.31;60.40;100086.50;7345707;19;20010;-64
2023/05/19 07:10:17;;;;;;;13.10;9.18;;;;;;;16.51;59.97;100090.09;7343706;19;20465;-64
2023/05/19 07:12:45;;;;;;;16.50;9.68;;;;;;;16.62;59.30;100090.03;7343248;19;20085;-64
2023/05/19 07:15:13;;;;;;;16.42;10.00;;;;;;;16.76;58.85;100086.09;7347382;19;20014;-65
2023/05/19 07:17:39;;;;;;;9.77;8.43;;;;;;;16.82;58.66;100089.06;7345132;19;20010;-64
2023/05/19 07:20:08;;;;;;;16.73;9.75;;;;;;;16.89;58.25;100097.47;7347471;19;20025;-65
2023/05/19 07:22:34;;;;;;;15.90;9.05;;;;;;;16.94;57.46;100092.50;7342359;19;20015;-64
2023/05/19 07:24:59;;;;;;;13.43;9.77;;;;;;;16.90;57.17;100099.19;7342366;19;20011;-64
2023/05/19 07:27:26;;;;;;;13.48;9.55;;;;;;;16.79;57.41;100096.59;7344719;19;20461;-64
2023/05/19 07:29:53;;;;;;;16.77;9.07;;;;;;;16.73;57.95;100095.28;7343203;19;20032;-63
2023/05/19 07:32:19;;;;;;;15.45;10.38;;;;;;;16.70;58.21;100101.81;7341968;19;20093;-63
2023/05/19 07:34:45;;;;;;;15.70;10.65;;;;;;;16.72;58.39;100104.34;7343826;19;20025;-65
2023/05/19 07:37:10;;;;;;;15.15;10.75;;;;;;;16.71;58.27;100094.56;7342016;19;20021;-63
2023/05/19 07:39:35;;;;;;;12.27;9.63;;;;;;;16.67;58.03;100102.09;7343335;19;20022;-63
2023/05/19 07:42:00;;;;;;;15.05;9.18;;;;;;;16.71;58.05;100094.56;7341887;19;20019;-64
2023/05/19 07:44:33;;;;;;;14.05;9.50;;;;;;;16.84;57.84;100097.88;7344875;19;20476;-63
2023/05/19 07:46:58;;;;;;;17.15;9.63;;;;;;;16.71;57.44;100094.56;7343309;19;20369;-65
2023/05/19 07:49:26;;;;;;;13.77;9.55;;;;;;;16.70;57.38;100103.66;7342857;19;20039;-63
2023/05/19 07:51:51;;;;;;;16.33;10.20;;;;;;;16.66;57.15;100086.94;7342972;19;20014;-65
2023/05/19 07:54:16;;;;;;;20.58;10.15;;;;;;;16.62;57.31;100100.78;7342666;19;20023;-63
2023/05/19 07:56:40;;;;;;;15.25;9.85;;;;;;;16.58;57.03;100096.66;7342420;19;20022;-63
2023/05/19 07:59:06;;;;;;;13.48;9.18;;;;;;;16.65;56.75;100100.53;7343329;19;20015;-64
2023/05/19 08:01:36;;;;;;;14.93;8.77;;;;;;;16.84;56.77;100095.19;7341560;19;20098;-64
2023/05/19 08:04:01;;;;;;;12.65;9.15;;;;;;;17.13;55.72;100099.78;7346499;19;20022;-63
2023/05/19 08:06:27;;;;;;;24.27;10.65;;;;;;;17.53;54.41;100087.00;7340349;19;20025;-64
2023/05/19 08:08:56;;;;;;;11.23;7.90;;;;;;;18.24;51.93;100092.84;7341700;19;20106;-65
2023/05/19 08:11:28;;;;;;;16.38;8.55;;;;;;;19.43;50.04;100092.72;7342579;19;20033;-63
2023/05/19 08:13:56;;;;;;;15.43;9.00;;;;;;;20.73;47.45;100092.78;7346574;19;20469;-64
2023/05/19 08:16:23;;;;;;;16.85;9.57;;;;;;;21.74;44.22;100094.34;7340581;19;20020;-64
2023/05/19 08:18:49;;;;;;;11.80;7.88;;;;;;;22.66;42.85;100093.81;7342951;19;20088;-64
2023/05/19 08:21:14;;;;;;;15.57;8.77;;;;;;;23.69;40.81;100090.88;7340073;19;20030;-64
2023/05/19 08:23:38;;;;;;;13.25;8.63;;;;;;;24.47;39.13;100098.63;7343867;19;20022;-64
2023/05/19 08:28:35;;;;;;;12.65;8.60;;;;;;;24.90;36.95;100096.88;7347531;19;20029;-65
2023/05/19 08:31:00;;;;;;;13.80;8.40;;;;;;;24.92;36.09;100092.09;7346781;19;20015;-64
2023/05/19 08:33:30;;;;;;;10.77;7.50;;;;;;;25.01;35.56;100085.50;7349183;19;20014;-63
2023/05/19 08:36:00;;;;;;;12.27;7.47;;;;;;;25.22;34.74;100091.00;7350172;19;20015;-64
2023/05/19 08:38:25;;;;;;;13.85;7.78;;;;;;;26.01;33.79;100088.19;7345795;19;20519;-65
2023/05/19 08:40:50;;;;;;;13.00;6.90;;;;;;;26.89;32.80;100086.63;7342926;19;20548;-65
2023/05/19 08:43:16;;;;;;;12.40;6.72;;;;;;;27.75;31.37;100094.06;7345258;19;20022;-64
2023/05/19 08:45:47;;;;;;;15.35;7.38;;;;;;;29.06;28.97;100092.16;7347764;19;20026;-63
2023/05/19 08:48:17;;;;;;;9.10;5.53;;;;;;;30.66;27.23;100087.97;7340841;19;20014;-65
2023/05/19 08:50:50;;;;;;;8.77;5.85;;;;;;;32.12;25.90;100095.84;7340446;19;20025;-64
2023/05/19 08:53:35;;;;;;;19.60;6.07;;;;;;;33.81;23.83;100088.13;7338194;19;20021;-64
2023/05/19 08:56:14;;;;;;;12.95;6.55;;;;;;;35.26;22.21;100204.19;7338284;19;20119;-64
2023/05/19 08:58:44;;;;;;;15.50;6.78;;;;;;;36.65;20.32;100160.91;7338886;19;20117;-65
2023/05/19 09:01:16;;;;;;;10.48;6.35;;;;;;;;;;7338809;19;20042;-65
2023/05/19 09:03:48;;;;;;;9.43;6.05;;;;;;;36.96;nan;100157.22;7341926;19;20303;-64
2023/05/19 09:06:14;;;;;;;9.95;6.57;;;;;;;36.37;nan;100203.75;7337930;19;20356;-65
2023/05/19 09:08:41;;;;;;;14.60;6.32;;;;;;;35.75;nan;100201.47;7339250;19;20384;-65
2023/05/19 09:11:07;;;;;;;12.35;6.18;;;;;;;;;;7341289;19;20018;-64
2023/05/19 09:13:32;;;;;;;12.20;6.70;;;;;;;34.44;nan;100195.75;7342782;19;20021;-63
2023/05/19 09:15:58;;;;;;;8.32;5.72;;;;;;;34.59;nan;100095.44;7338399;19;20022;-63
2023/05/19 09:18:25;;;;;;;11.05;5.78;;;;;;;34.86;nan;100082.56;7346282;19;20406;-64
2023/05/19 09:23:23;;;;;;;9.13;6.43;;;;;;;35.18;nan;100074.34;7347477;19;20024;-64
2023/05/19 09:25:50;;;;;;;8.00;5.43;;;;;;;35.42;nan;100074.06;7345952;19;20473;-67
2023/05/19 09:28:28;;;;;;;8.23;5.43;;;;;;;35.79;nan;100083.31;7350856;19;20082;-65
2023/05/19 09:31:05;;;;;;;8.85;6.50;;;;;;;36.09;nan;100077.19;7346152;19;20029;-64
2023/05/19 09:33:39;;;;;;;8.63;5.68;;;;;;;36.54;nan;100081.38;7347167;19;20509;-64
2023/05/19 09:36:07;;;;;;;7.22;6.25;;;;;;;37.05;nan;100077.75;7346364;19;20018;-66
2023/05/19 09:38:40;;;;;;;6.72;6.07;;;;;;;37.97;nan;100069.56;7347150;19;20015;-66
2023/05/19 09:41:07;;;;;;;6.78;5.97;;;;;;;38.76;nan;100068.91;7343914;19;20021;-65
2023/05/19 09:43:38;;;;;;;10.13;6.22;;;;;;;38.80;nan;100075.56;7347628;19;20022;-65
2023/05/19 09:46:10;;;;;;;9.82;6.13;;;;;;;39.29;nan;100072.00;7347207;19;20015;-65
2023/05/19 09:48:42;;;;;;;7.65;6.63;;;;;;;38.93;nan;100062.97;7345706;19;20024;-64
2023/05/19 09:51:11;;;;;;;6.43;5.82;;;;;;;39.18;nan;100069.25;7345274;19;20015;-65
2023/05/19 09:53:43;;;;;;;7.38;6.30;;;;;;;39.53;nan;100157.53;7344758;19;20014;-64
2023/05/19 09:56:22;;;;;;;7.28;6.35;;;;;;;40.16;nan;100159.63;7348811;19;20479;-65
2023/05/19 09:58:48;;;;;;;7.95;6.95;;;;;;;38.93;nan;100174.50;7345070;19;20053;-65
2023/05/19 10:01:14;;;;;;;11.40;6.07;;;;;;;38.74;nan;100126.88;7343763;19;20041;-65
2023/05/19 10:03:40;;;;;;;7.68;5.85;;;;;;;38.54;nan;100160.38;7344476;19;20427;-66
2023/05/19 10:06:06;;;;;;;11.15;6.05;;;;;;;37.69;nan;100132.22;7344341;19;20022;-65
2023/05/19 10:08:33;;;;;;;7.60;5.80;;;;;;;36.59;nan;100060.00;7344866;19;20022;-65
2023/05/19 10:11:01;;;;;;;9.40;5.78;;;;;;;35.87;nan;100052.31;7345797;19;20035;-66
2023/05/19 10:13:28;;;;;;;13.45;5.78;;;;;;;35.22;nan;100047.75;7349994;19;20504;-66
2023/05/19 10:15:54;;;;;;;9.15;5.07;;;;;;;35.00;nan;100049.72;7344298;19;20015;-66
2023/05/19 10:18:36;;;;;;;8.52;4.93;;;;;;;35.27;nan;100045.09;7344633;19;20342;-65
2023/05/19 10:21:03;;;;;;;7.63;4.53;;;;;;;34.64;nan;100045.69;7345169;19;20549;-66
2023/05/19 10:23:30;;;;;;;7.00;5.10;;;;;;;33.87;nan;100043.69;7345347;19;20021;-67
2023/05/19 10:25:59;;;;;;;8.63;4.60;;;;;;;32.93;nan;100050.78;7346607;19;20063;-65
2023/05/19 10:28:33;;;;;;;7.25;4.50;;;;;;;31.81;nan;100044.63;7345760;19;20532;-65
2023/05/19 10:31:04;;;;;;;7.18;4.05;;;;;;;30.28;nan;100041.38;7345156;19;20018;-63
2023/05/19 10:33:40;;;;;;;5.30;3.83;;;;;;;29.75;nan;100049.25;7347356;19;20378;-64
2023/05/19 10:36:28;;;;;;;7.05;3.83;;;;;;;28.51;nan;100045.06;7347887;19;20118;-64
2023/05/19 10:41:41;;;;;;;6.00;3.83;;;;;;;27.29;nan;100054.78;7344553;19;20018;-64
2023/05/19 10:44:30;;;;;;;7.32;3.47;;;;;;;27.03;nan;100048.19;7348763;19;20126;-63
2023/05/19 10:47:05;;;;;;;5.22;3.55;;;;;;;26.15;nan;100046.25;7344433;19;20473;-63
2023/05/19 10:49:35;;;;;;;9.88;3.80;;;;;;;25.76;nan;100051.41;7346355;19;20018;-62
2023/05/19 10:52:24;;;;;;;6.05;3.60;;;;;;;25.77;nan;100055.84;7345967;19;20070;-64
2023/05/19 10:57:32;;;;;;;6.45;3.17;;;;;;;24.83;nan;100055.06;7343667;19;20027;-65
2023/05/19 10:59:59;;;;;;;5.65;3.40;;;;;;;24.49;nan;100053.75;7344420;19;20010;-65
2023/05/19 11:02:38;;;;;;;12.82;3.80;;;;;;;24.57;nan;100050.09;7343591;19;20014;-64
2023/05/19 11:05:13;;;;;;;4.00;3.08;;;;;;;24.29;nan;100049.06;7346761;19;20007;-69
2023/05/19 11:07:41;;;;;;;5.85;3.67;;;;;;;24.01;nan;100055.16;7347067;19;20346;-68
2023/05/19 11:10:07;;;;;;;4.70;3.00;;;;;;;23.72;nan;100044.19;7342935;19;20013;-65
2023/05/19 11:12:41;;;;;;;7.97;3.40;;;;;;;23.69;nan;100041.84;7348683;19;20022;-65
2023/05/19 11:15:12;;;;;;;14.13;3.58;;;;;;;23.48;nan;100047.94;7347183;19;20057;-64
2023/05/19 11:17:45;;;;;;;7.85;3.25;;;;;;;23.22;nan;100047.47;7346783;19;20015;-65
2023/05/19 11:20:33;;;;;;;7.88;3.58;;;;;;;23.38;nan;100040.03;7343864;19;20018;-64
2023/05/19 11:23:12;;;;;;;8.25;4.30;;;;;;;22.82;nan;100041.25;7344825;19;20022;-63
2023/05/19 11:25:50;;;;;;;7.07;3.50;;;;;;;22.74;nan;100041.28;7347338;19;20039;-64
2023/05/19 11:28:24;;;;;;;7.00;3.50;;;;;;;22.52;nan;100045.63;7343621;19;20014;-64
2023/05/19 11:30:56;;;;;;;8.25;3.22;;;;;;;22.43;nan;100039.41;7342221;19;20018;-63
2023/05/19 11:33:27;;;;;;;5.07;3.60;;;;;;;22.28;nan;100032.16;7346898;19;20018;-64
2023/05/19 11:35:58;;;;;;;6.70;3.50;;;;;;;22.29;nan;100042.00;7345162;19;20018;-63
2023/05/19 11:38:28;;;;;;;8.75;3.40;;;;;;;22.20;nan;100049.31;7345658;19;20014;-70
2023/05/19 11:41:04;;;;;;;5.65;2.90;;;;;;;22.28;nan;100043.88;7343199;19;20411;-63
2023/05/19 11:43:29;;;;;;;6.88;3.78;;;;;;;22.14;nan;100043.72;7345384;19;20010;-62
2023/05/19 11:45:54;;;;;;;5.60;3.58;;;;;;;22.07;nan;100046.31;7345760;19;20015;-61
2023/05/19 11:48:21;;;;;;;5.05;3.15;;;;;;;21.95;nan;100051.22;7352122;19;20014;-66
2023/05/19 11:50:46;;;;;;;4.13;2.92;;;;;;;21.87;nan;100050.41;7346088;19;20029;-62
2023/05/19 11:53:15;;;;;;;9.73;3.72;;;;;;;21.79;nan;100053.09;7347327;19;20130;-62